createdAt,value
2022-07-29T00:00:05.896Z,349.4
2022-07-29T00:03:32.352Z,349.3
2022-07-29T00:05:15.752Z,349.3
2022-07-29T00:06:59.152Z,347.1
2022-07-29T00:08:42.543Z,347.2
2022-07-29T00:10:25.939Z,346.2
2022-07-29T00:12:09.335Z,348.2
2022-07-29T00:13:52.731Z,348.6
2022-07-29T00:15:36.139Z,346.2
2022-07-29T00:20:45.375Z,346.6
2022-07-29T00:22:28.789Z,348.4
2022-07-29T00:24:12.166Z,346.2
2022-07-29T00:25:55.574Z,344.6
2022-07-29T00:27:38.965Z,343.8
2022-07-29T00:29:22.369Z,345.1
2022-07-29T00:31:05.761Z,347.4
2022-07-29T00:32:49.145Z,348.3
2022-07-29T00:36:15.629Z,348.6
2022-07-29T00:37:59.030Z,348.4
2022-07-29T00:39:42.431Z,348.8
2022-07-29T00:41:25.825Z,348.7
2022-07-29T00:43:09.216Z,348.6
2022-07-29T00:44:52.617Z,348.7
2022-07-29T00:46:36.015Z,348.6
2022-07-29T00:48:19.413Z,350
2022-07-29T00:51:45.874Z,349.3
2022-07-29T00:53:29.265Z,350.1
2022-07-29T00:55:12.676Z,351.4
2022-07-29T00:56:56.076Z,350.2
2022-07-29T00:58:39.459Z,351
2022-07-29T01:00:22.865Z,351
2022-07-29T01:02:06.269Z,349.1
2022-07-29T01:03:49.652Z,348.2
2022-07-29T01:05:33.368Z,348.4
2022-07-29T01:07:16.749Z,350.1
2022-07-29T01:09:00.147Z,350.2
2022-07-29T01:10:43.545Z,350.2
2022-07-29T01:12:26.960Z,350.6
2022-07-29T01:14:10.353Z,350.4
2022-07-29T01:15:53.762Z,353.4
2022-07-29T01:17:37.144Z,352.2
2022-07-29T01:21:03.610Z,349.9
2022-07-29T01:22:47.021Z,348.3
2022-07-29T01:24:30.420Z,350.1
2022-07-29T01:26:13.807Z,350.6
2022-07-29T01:27:57.207Z,351.1
2022-07-29T01:29:40.602Z,352.3
2022-07-29T01:31:23.990Z,352.5
2022-07-29T01:33:07.387Z,354
2022-07-29T01:36:33.870Z,353.8
2022-07-29T01:38:17.266Z,353.8
2022-07-29T01:40:00.673Z,352.6
2022-07-29T01:41:44.083Z,353.7
2022-07-29T01:43:27.451Z,354.8
2022-07-29T01:45:10.857Z,351.7
2022-07-29T01:46:54.254Z,350.8
2022-07-29T01:48:37.647Z,354.6
2022-07-29T01:52:04.124Z,357.8
2022-07-29T01:53:47.523Z,359
2022-07-29T01:55:30.927Z,359.7
2022-07-29T01:57:14.323Z,359.8
2022-07-29T01:58:57.758Z,359.6
2022-07-29T02:00:41.116Z,357.7
2022-07-29T02:02:24.501Z,356.5
2022-07-29T02:04:07.903Z,357.4
2022-07-29T02:07:34.384Z,357
2022-07-29T02:09:17.769Z,358.1
2022-07-29T02:11:01.161Z,357.1
2022-07-29T02:12:44.560Z,357.8
2022-07-29T02:14:27.978Z,359.5
2022-07-29T02:16:11.371Z,360.8
2022-07-29T02:17:54.761Z,360.7
2022-07-29T02:19:38.150Z,361.4
2022-07-29T02:23:04.638Z,359.9
2022-07-29T02:24:48.037Z,359.1
2022-07-29T02:26:31.419Z,359.2
2022-07-29T02:28:14.829Z,361.8
2022-07-29T02:29:58.212Z,360.3
2022-07-29T02:31:41.613Z,360.4
2022-07-29T02:33:25.017Z,361.5
2022-07-29T02:38:34.253Z,361.2
2022-07-29T02:40:17.662Z,362.2
2022-07-29T02:42:01.056Z,362.1
2022-07-29T02:43:44.438Z,362.7
2022-07-29T02:45:27.839Z,362.7
2022-07-29T02:47:11.235Z,359.7
2022-07-29T02:48:54.627Z,358.6
2022-07-29T02:50:38.013Z,359.5
2022-07-29T02:54:04.510Z,362.3
2022-07-29T02:55:47.895Z,362.8
2022-07-29T02:57:31.347Z,363.3
2022-07-29T02:59:14.704Z,364
2022-07-29T03:00:58.097Z,364.6
2022-07-29T03:02:41.485Z,365.5
2022-07-29T03:04:24.885Z,367.1
2022-07-29T03:06:08.276Z,367.3
2022-07-29T03:09:34.771Z,364.3
2022-07-29T03:11:18.146Z,364.8
2022-07-29T03:13:01.547Z,364.5
2022-07-29T03:14:44.945Z,362.4
2022-07-29T03:16:28.351Z,361.5
2022-07-29T03:18:11.737Z,363.5
2022-07-29T03:19:55.144Z,363.6
2022-07-29T03:21:38.531Z,363.7
2022-07-29T03:23:22.235Z,363.1
2022-07-29T03:25:05.633Z,363
2022-07-29T03:26:49.028Z,364.5
2022-07-29T03:28:32.414Z,366.4
2022-07-29T03:30:15.806Z,369.1
2022-07-29T03:31:59.214Z,369.3
2022-07-29T03:33:42.629Z,371
2022-07-29T03:35:26.005Z,368.7
2022-07-29T03:38:52.470Z,364.3
2022-07-29T03:40:35.876Z,365.5
2022-07-29T03:42:19.274Z,363.6
2022-07-29T03:44:02.676Z,364.7
2022-07-29T03:45:46.065Z,366.7
2022-07-29T03:47:29.485Z,365.4
2022-07-29T03:49:12.854Z,362.3
2022-07-29T03:52:39.323Z,365.4
2022-07-29T03:54:22.743Z,369.6
2022-07-29T03:56:06.125Z,370.2
2022-07-29T03:57:49.506Z,369.4
2022-07-29T03:59:32.921Z,371.4
2022-07-29T04:01:16.311Z,371.3
2022-07-29T04:02:59.706Z,372.7
2022-07-29T04:04:43.116Z,371.3
2022-07-29T04:08:09.578Z,374.7
2022-07-29T04:09:52.972Z,374.3
2022-07-29T04:11:36.404Z,373
2022-07-29T04:13:19.768Z,372.5
2022-07-29T04:15:03.158Z,373
2022-07-29T04:16:46.562Z,373.2
2022-07-29T04:18:29.955Z,374
2022-07-29T04:20:13.364Z,376
2022-07-29T04:21:57.063Z,377
2022-07-29T04:23:40.461Z,377.1
2022-07-29T04:25:23.865Z,377.5
2022-07-29T04:27:07.261Z,378.1
2022-07-29T04:28:50.639Z,377.4
2022-07-29T04:30:34.041Z,376.8
2022-07-29T04:32:17.439Z,377.2
2022-07-29T04:34:00.833Z,378.1
2022-07-29T04:37:27.305Z,378
2022-07-29T04:39:10.710Z,377.3
2022-07-29T04:40:54.106Z,377.3
2022-07-29T04:42:37.498Z,378.5
2022-07-29T04:44:20.882Z,377.5
2022-07-29T04:46:04.288Z,376.8
2022-07-29T04:47:47.716Z,379.4
2022-07-29T04:49:31.088Z,379.7
2022-07-29T04:52:57.567Z,377.9
2022-07-29T04:54:40.946Z,376.5
2022-07-29T04:56:24.353Z,374.3
2022-07-29T04:58:07.748Z,374.2
2022-07-29T04:59:51.142Z,374.2
2022-07-29T05:01:34.550Z,374.7
2022-07-29T05:03:18.082Z,376.2
2022-07-29T05:08:27.170Z,376.7
2022-07-29T05:10:10.570Z,375.2
2022-07-29T05:11:53.966Z,373.3
2022-07-29T05:13:37.373Z,371.3
2022-07-29T05:15:20.761Z,370.7
2022-07-29T05:17:04.161Z,372.1
2022-07-29T05:18:47.559Z,371.5
2022-07-29T05:20:30.945Z,371.2
2022-07-29T05:23:57.422Z,372.7
2022-07-29T05:25:40.822Z,369.8
2022-07-29T05:27:24.206Z,368.7
2022-07-29T05:29:07.600Z,367.7
2022-07-29T05:30:50.998Z,367.8
2022-07-29T05:32:34.404Z,368.3
2022-07-29T05:34:17.802Z,368.4
2022-07-29T05:36:01.191Z,367.5
2022-07-29T05:39:27.664Z,365
2022-07-29T05:41:11.068Z,365.7
2022-07-29T05:42:54.464Z,367.5
2022-07-29T05:44:37.862Z,370
2022-07-29T05:46:21.251Z,370.4
2022-07-29T05:48:04.644Z,374.6
2022-07-29T05:49:48.034Z,380.7
2022-07-29T05:51:31.436Z,389.3
2022-07-29T05:54:57.917Z,386.7
2022-07-29T05:56:41.314Z,385.4
2022-07-29T05:58:24.697Z,385
2022-07-29T06:00:08.095Z,386.4
2022-07-29T06:01:51.505Z,382.6
2022-07-29T06:03:34.912Z,381.8
2022-07-29T06:05:18.301Z,382.6
2022-07-29T06:07:01.681Z,390.4
2022-07-29T06:10:28.175Z,388.1
2022-07-29T06:12:11.560Z,391
2022-07-29T06:13:54.953Z,398.2
2022-07-29T06:15:38.349Z,400.3
2022-07-29T06:17:21.744Z,403.6
2022-07-29T06:19:05.153Z,410.5
2022-07-29T06:20:48.535Z,410.6
2022-07-29T06:22:31.942Z,407.7
2022-07-29T06:25:58.429Z,407.4
2022-07-29T06:27:41.813Z,410.2
2022-07-29T06:29:25.207Z,410.3
2022-07-29T06:31:08.608Z,409.1
2022-07-29T06:32:51.993Z,408.4
2022-07-29T06:34:35.419Z,404.5
2022-07-29T06:36:18.794Z,398.5
2022-07-29T06:38:02.187Z,397.8
2022-07-29T06:43:11.475Z,395.6
2022-07-29T06:44:54.807Z,394.1
2022-07-29T06:46:38.234Z,393.7
2022-07-29T06:48:21.613Z,395.8
2022-07-29T06:50:05.011Z,395
2022-07-29T06:51:48.395Z,395.6
2022-07-29T06:53:31.785Z,396.8
2022-07-29T06:55:15.188Z,397.5
2022-07-29T06:58:41.676Z,395.7
2022-07-29T07:00:25.068Z,392.7
2022-07-29T07:02:08.456Z,390.3
2022-07-29T07:03:51.851Z,385.8
2022-07-29T07:05:35.259Z,383.4
2022-07-29T07:07:18.652Z,382.8
2022-07-29T07:09:02.047Z,380.3
2022-07-29T07:10:45.429Z,377.5
2022-07-29T07:14:11.907Z,375.5
2022-07-29T07:15:55.303Z,372.6
2022-07-29T07:17:38.702Z,372.2
2022-07-29T07:19:22.097Z,370.2
2022-07-29T07:21:05.508Z,370.5
2022-07-29T07:22:48.892Z,371.6
2022-07-29T07:24:32.295Z,370.5
2022-07-29T07:26:15.706Z,367
2022-07-29T07:29:42.170Z,362.8
2022-07-29T07:31:25.559Z,361.2
2022-07-29T07:33:08.968Z,359
2022-07-29T07:34:52.363Z,357.7
2022-07-29T07:36:35.749Z,355.7
2022-07-29T07:38:19.143Z,354.3
2022-07-29T07:40:02.548Z,353.1
2022-07-29T07:41:45.932Z,353.8
2022-07-29T07:45:12.404Z,352.5
2022-07-29T07:46:55.819Z,351.6
2022-07-29T07:48:39.350Z,352.3
2022-07-29T07:50:22.621Z,349.6
2022-07-29T07:52:05.992Z,348.1
2022-07-29T07:53:49.396Z,345.6
2022-07-29T07:55:32.778Z,346.1
2022-07-29T07:57:16.174Z,347
2022-07-29T08:00:42.644Z,345.5
2022-07-29T08:02:26.051Z,347.4
2022-07-29T08:04:09.450Z,346.1
2022-07-29T08:05:52.850Z,345
2022-07-29T08:07:36.238Z,344.6
2022-07-29T08:09:19.634Z,345.2
2022-07-29T08:11:03.050Z,344.5
2022-07-29T08:12:46.433Z,345.1
2022-07-29T08:16:12.909Z,342.8
2022-07-29T08:17:56.301Z,345.4
2022-07-29T08:19:39.696Z,345.6
2022-07-29T08:21:23.101Z,344.1
2022-07-29T08:23:06.496Z,345.2
2022-07-29T08:24:49.896Z,348.2
2022-07-29T08:26:33.281Z,351.7
2022-07-29T08:28:16.696Z,357.4
2022-07-29T08:30:00.387Z,368.6
2022-07-29T08:31:43.784Z,382.6
2022-07-29T08:33:27.164Z,399.2
2022-07-29T08:35:10.562Z,409.2
2022-07-29T08:36:53.966Z,412.6
2022-07-29T08:38:37.360Z,413.2
2022-07-29T08:40:20.753Z,413
2022-07-29T08:42:04.165Z,415.6
2022-07-29T08:45:30.626Z,413.1
2022-07-29T08:47:14.039Z,408.1
2022-07-29T08:48:57.415Z,405.7
2022-07-29T08:50:40.829Z,403.4
2022-07-29T08:52:24.227Z,402.1
2022-07-29T08:54:07.618Z,401.6
2022-07-29T08:55:51.006Z,396.8
2022-07-29T08:57:34.454Z,393.2
2022-07-29T09:01:00.881Z,393.7
2022-07-29T09:02:44.286Z,398.4
2022-07-29T09:04:27.676Z,404.2
2022-07-29T09:06:11.076Z,408.2
2022-07-29T09:07:54.477Z,408.3
2022-07-29T09:09:37.884Z,410.4
2022-07-29T09:11:21.273Z,408.6
2022-07-29T09:13:04.643Z,409.1
2022-07-29T09:14:48.368Z,408.2
2022-07-29T09:16:31.758Z,407.3
2022-07-29T09:18:15.167Z,404.5
2022-07-29T09:19:58.562Z,402.7
2022-07-29T09:21:41.940Z,402.5
2022-07-29T09:23:25.354Z,401.4
2022-07-29T09:25:08.734Z,401.6
2022-07-29T09:26:52.139Z,403.4
2022-07-29T09:30:18.612Z,402.1
2022-07-29T09:32:02.021Z,402.2
2022-07-29T09:33:45.409Z,401.5
2022-07-29T09:35:28.805Z,401.2
2022-07-29T09:37:12.217Z,399
2022-07-29T09:38:55.595Z,394.3
2022-07-29T09:40:38.997Z,391.1
2022-07-29T09:45:48.244Z,389
2022-07-29T09:47:31.640Z,387.7
2022-07-29T09:49:15.057Z,386.8
2022-07-29T09:50:58.441Z,384.4
2022-07-29T09:52:41.842Z,383
2022-07-29T09:54:25.239Z,380.7
2022-07-29T09:56:08.633Z,379.5
2022-07-29T09:57:52.014Z,381
2022-07-29T10:01:18.490Z,381.3
2022-07-29T10:03:01.900Z,380.4
2022-07-29T10:04:45.306Z,380.6
2022-07-29T10:06:28.679Z,381.2
2022-07-29T10:08:12.084Z,379.8
2022-07-29T10:09:55.465Z,375.4
2022-07-29T10:11:38.899Z,369.6
2022-07-29T10:13:22.274Z,365.6
2022-07-29T10:15:05.970Z,362.4
2022-07-29T10:16:49.361Z,362.1
2022-07-29T10:18:32.769Z,359.1
2022-07-29T10:20:16.159Z,357.6
2022-07-29T10:21:59.563Z,355.4
2022-07-29T10:23:42.959Z,355.6
2022-07-29T10:25:26.367Z,353.5
2022-07-29T10:27:09.758Z,352.2
2022-07-29T10:30:36.223Z,352.1
2022-07-29T10:32:19.617Z,354.1
2022-07-29T10:34:03.014Z,355.3
2022-07-29T10:35:46.434Z,357.6
2022-07-29T10:37:29.827Z,356.3
2022-07-29T10:39:13.203Z,358
2022-07-29T10:40:56.598Z,357.8
2022-07-29T10:42:40.014Z,363.4
2022-07-29T10:44:23.788Z,365.4
2022-07-29T10:46:07.105Z,365.2
2022-07-29T10:47:50.530Z,364.5
2022-07-29T10:49:33.923Z,363.6
2022-07-29T10:51:17.320Z,366
2022-07-29T10:53:00.729Z,365.5
2022-07-29T10:54:44.122Z,362.2
2022-07-29T10:56:27.496Z,359.3
2022-07-29T10:59:53.981Z,359.6
2022-07-29T11:01:37.360Z,358.8
2022-07-29T11:03:20.752Z,358.5
2022-07-29T11:05:04.170Z,359.8
2022-07-29T11:06:47.588Z,359.8
2022-07-29T11:08:30.954Z,362.6
2022-07-29T11:10:14.332Z,363.7
2022-07-29T11:13:40.803Z,366.9
2022-07-29T11:15:24.239Z,372.5
2022-07-29T11:17:07.636Z,375.7
2022-07-29T11:18:51.008Z,378.7
2022-07-29T11:20:34.415Z,381.4
2022-07-29T11:22:17.789Z,389.4
2022-07-29T11:24:01.192Z,402.2
2022-07-29T11:25:44.588Z,412
2022-07-29T11:27:28.338Z,415.4
2022-07-29T11:29:11.697Z,415.8
2022-07-29T11:30:55.086Z,412.1
2022-07-29T11:32:38.518Z,409.5
2022-07-29T11:34:21.870Z,405.8
2022-07-29T11:36:05.306Z,405.2
2022-07-29T11:37:48.690Z,404.1
2022-07-29T11:39:32.080Z,402.6
2022-07-29T11:41:15.777Z,399.9
2022-07-29T11:42:59.187Z,394.2
2022-07-29T11:44:42.582Z,393.5
2022-07-29T11:46:25.995Z,392.6
2022-07-29T11:48:09.368Z,389
2022-07-29T11:49:52.803Z,384.2
2022-07-29T11:51:36.179Z,383.4
2022-07-29T11:53:19.588Z,386.2
2022-07-29T11:55:03.269Z,390.3
2022-07-29T11:56:46.718Z,388.7
2022-07-29T11:58:30.083Z,388.3
2022-07-29T12:00:13.466Z,390.1
2022-07-29T12:01:56.848Z,389.8
2022-07-29T12:03:40.267Z,385.6
2022-07-29T12:05:35.770Z,384.6
2022-07-29T12:07:07.413Z,383.1
2022-07-29T12:10:33.519Z,378.6
2022-07-29T12:12:16.932Z,374.2
2022-07-29T12:14:00.310Z,371.3
2022-07-29T12:15:43.726Z,371.1
2022-07-29T12:17:27.120Z,369.4
2022-07-29T12:19:10.533Z,367.4
2022-07-29T12:20:53.922Z,368.7
2022-07-29T12:24:20.362Z,366.7
2022-07-29T12:26:03.814Z,361.5
2022-07-29T12:27:47.200Z,358
2022-07-29T12:29:30.553Z,357.4
2022-07-29T12:31:13.990Z,359.3
2022-07-29T12:32:57.364Z,357.6
2022-07-29T12:34:57.078Z,358.3
2022-07-29T12:36:24.151Z,357.7
2022-07-29T12:39:50.624Z,350.5
2022-07-29T12:41:34.025Z,345.6
2022-07-29T12:43:17.467Z,345.4
2022-07-29T12:45:00.840Z,344.7
2022-07-29T12:46:44.241Z,343.1
2022-07-29T12:48:27.604Z,341.3
2022-07-29T12:50:11.017Z,340.3
2022-07-29T12:55:20.260Z,336.9
2022-07-29T12:57:03.661Z,335.3
2022-07-29T12:58:47.049Z,337.4
2022-07-29T13:00:30.462Z,338.7
2022-07-29T13:02:13.845Z,338.7
2022-07-29T13:03:57.232Z,338
2022-07-29T13:05:40.634Z,335.2
2022-07-29T13:07:24.020Z,331.2
2022-07-29T13:09:07.739Z,330.8
2022-07-29T13:10:51.150Z,329.8
2022-07-29T13:12:34.537Z,331.1
2022-07-29T13:14:17.930Z,329.5
2022-07-29T13:16:01.311Z,330.1
2022-07-29T13:17:44.719Z,328.6
2022-07-29T13:19:28.127Z,327.1
2022-07-29T13:21:11.510Z,324.8
2022-07-29T13:22:55.235Z,322.5
2022-07-29T13:24:38.634Z,323.3
2022-07-29T13:26:22.000Z,323.1
2022-07-29T13:28:05.432Z,320.7
2022-07-29T13:29:48.807Z,320.6
2022-07-29T13:31:32.199Z,323.2
2022-07-29T13:33:15.598Z,322.7
2022-07-29T13:34:59.010Z,322.6
2022-07-29T13:38:25.493Z,320.7
2022-07-29T13:40:08.857Z,318.3
2022-07-29T13:41:52.283Z,316.5
2022-07-29T13:43:35.655Z,315.7
2022-07-29T13:45:19.082Z,314.3
2022-07-29T13:47:02.462Z,312.1
2022-07-29T13:48:45.872Z,311.7
2022-07-29T13:50:29.262Z,312
2022-07-29T13:53:55.729Z,313.7
2022-07-29T13:55:39.157Z,313.4
2022-07-29T13:57:22.516Z,313.5
2022-07-29T13:59:05.936Z,314.3
2022-07-29T14:00:49.318Z,313.7
2022-07-29T14:02:32.741Z,315.4
2022-07-29T14:04:16.117Z,318.7
2022-07-29T14:05:59.508Z,317
2022-07-29T14:09:25.994Z,317.9
2022-07-29T14:11:09.374Z,318.2
2022-07-29T14:12:52.783Z,314.5
2022-07-29T14:14:36.186Z,314.1
2022-07-29T14:16:19.562Z,312.4
2022-07-29T14:18:02.966Z,309.8
2022-07-29T14:19:46.366Z,310.6
2022-07-29T14:24:55.615Z,311.8
2022-07-29T14:26:38.988Z,311.5
2022-07-29T14:28:22.396Z,314.2
2022-07-29T14:30:05.788Z,313.6
2022-07-29T14:31:49.192Z,312.3
2022-07-29T14:33:32.583Z,311.4
2022-07-29T14:35:15.987Z,310.8
2022-07-29T14:36:59.371Z,314
2022-07-29T14:40:25.852Z,311.9
2022-07-29T14:42:09.267Z,310
2022-07-29T14:43:52.643Z,309.4
2022-07-29T14:45:36.045Z,311.5
2022-07-29T14:47:19.464Z,322.5
2022-07-29T14:49:02.847Z,328.4
2022-07-29T14:50:46.251Z,337.1
2022-07-29T14:52:29.626Z,342.4
2022-07-29T14:55:56.093Z,345.9
2022-07-29T14:57:39.502Z,342.3
2022-07-29T14:59:22.912Z,341
2022-07-29T15:01:06.292Z,338.5
2022-07-29T15:02:49.731Z,337.6
2022-07-29T15:04:33.083Z,336.8
2022-07-29T15:06:16.494Z,334.5
2022-07-29T15:07:59.904Z,332.8
2022-07-29T15:13:09.141Z,325.4
2022-07-29T15:14:52.514Z,323.8
2022-07-29T15:16:35.921Z,320.2
2022-07-29T15:18:19.322Z,319.5
2022-07-29T15:20:02.717Z,318.4
2022-07-29T15:21:46.105Z,318.3
2022-07-29T15:23:29.503Z,315.1
2022-07-29T15:25:12.925Z,316.5
2022-07-29T15:30:22.160Z,318.3
2022-07-29T15:32:05.531Z,316.6
2022-07-29T15:33:48.961Z,317.7
2022-07-29T15:35:32.342Z,316.7
2022-07-29T15:37:15.733Z,316.7
2022-07-29T15:38:59.129Z,314.8
2022-07-29T15:40:42.539Z,313.6
2022-07-29T15:42:25.930Z,313.2
2022-07-29T15:45:52.397Z,310.8
2022-07-29T15:47:35.792Z,311.4
2022-07-29T15:49:19.187Z,312.6
2022-07-29T15:51:02.612Z,313.7
2022-07-29T15:52:45.996Z,314.4
2022-07-29T15:54:29.394Z,313.1
2022-07-29T15:56:12.780Z,313
2022-07-29T15:57:56.174Z,312.6
2022-07-29T16:01:22.653Z,313.1
2022-07-29T16:03:06.053Z,312.7
2022-07-29T16:04:49.437Z,315.2
2022-07-29T16:06:32.856Z,315.4
2022-07-29T16:08:16.272Z,314.5
2022-07-29T16:09:59.672Z,312.6
2022-07-29T16:11:43.040Z,313
2022-07-29T16:13:26.424Z,313.6
2022-07-29T16:16:52.902Z,311.9
2022-07-29T16:18:36.301Z,311.2
2022-07-29T16:20:19.714Z,310
2022-07-29T16:22:03.102Z,308.3
2022-07-29T16:23:46.533Z,308.4
2022-07-29T16:25:29.887Z,309.5
2022-07-29T16:27:13.275Z,308.7
2022-07-29T16:28:56.678Z,306.3
2022-07-29T16:32:23.164Z,308.8
2022-07-29T16:34:06.586Z,308.7
2022-07-29T16:35:49.984Z,307.8
2022-07-29T16:37:33.356Z,308.5
2022-07-29T16:39:16.742Z,309.1
2022-07-29T16:41:00.137Z,310.1
2022-07-29T16:42:43.552Z,313.8
2022-07-29T16:44:26.950Z,314.6
2022-07-29T16:47:53.424Z,312.3
2022-07-29T16:49:36.819Z,309.2
2022-07-29T16:51:20.209Z,310.7
2022-07-29T16:53:03.606Z,317.2
2022-07-29T16:54:47.010Z,323
2022-07-29T16:56:30.402Z,334.6
2022-07-29T16:58:13.786Z,345.7
2022-07-29T16:59:57.198Z,350.4
2022-07-29T17:01:40.887Z,350.2
2022-07-29T17:03:24.274Z,348.7
2022-07-29T17:05:07.692Z,346
2022-07-29T17:06:51.086Z,345.4
2022-07-29T17:08:34.493Z,346
2022-07-29T17:10:17.882Z,342.8
2022-07-29T17:12:01.317Z,342.6
2022-07-29T17:13:44.669Z,345.8
2022-07-29T17:17:11.163Z,350.5
2022-07-29T17:18:54.534Z,353.2
2022-07-29T17:20:37.939Z,355.3
2022-07-29T17:22:21.351Z,356.1
2022-07-29T17:24:04.729Z,360.1
2022-07-29T17:25:48.114Z,364.3
2022-07-29T17:27:31.523Z,370.4
2022-07-29T17:29:14.916Z,373.6
2022-07-29T17:30:58.619Z,374.5
2022-07-29T17:32:42.034Z,378.4
2022-07-29T17:34:25.406Z,387.3
2022-07-29T17:36:08.817Z,393.5
2022-07-29T17:37:52.208Z,395.1
2022-07-29T17:39:35.632Z,396.4
2022-07-29T17:41:18.999Z,402.1
2022-07-29T17:43:02.401Z,405.5
2022-07-29T17:48:11.632Z,402.2
2022-07-29T17:49:55.017Z,399.5
2022-07-29T17:51:38.427Z,398.5
2022-07-29T17:53:21.816Z,397
2022-07-29T17:55:05.227Z,395.6
2022-07-29T17:56:48.611Z,393.5
2022-07-29T17:58:32.022Z,392.8
2022-07-29T18:00:15.426Z,391.8
2022-07-29T18:01:59.116Z,389.4
2022-07-29T18:03:42.509Z,390.3
2022-07-29T18:07:09.304Z,391.8
2022-07-29T18:08:52.689Z,393.2
2022-07-29T18:10:36.079Z,398.1
2022-07-29T18:12:19.486Z,400.1
2022-07-29T18:14:02.882Z,398.4
2022-07-29T18:17:29.359Z,392.5
2022-07-29T18:19:12.741Z,393.8
2022-07-29T18:20:56.142Z,398.2
2022-07-29T18:22:39.548Z,404.6
2022-07-29T18:24:22.951Z,413
2022-07-29T18:26:06.350Z,416.3
2022-07-29T18:27:49.722Z,416.1
2022-07-29T18:29:33.136Z,413.5
2022-07-29T18:32:59.590Z,409.2
2022-07-29T18:34:42.992Z,406.2
2022-07-29T18:36:26.400Z,404.1
2022-07-29T18:38:09.788Z,402.8
2022-07-29T18:39:53.171Z,403.5
2022-07-29T18:41:38.402Z,406.1
2022-07-29T18:43:19.966Z,410.3
2022-07-29T18:45:03.380Z,413.2
2022-07-29T18:48:29.851Z,417.6
2022-07-29T18:50:13.252Z,417.8
2022-07-29T18:51:56.649Z,418.2
2022-07-29T18:53:40.042Z,417.7
2022-07-29T18:55:23.443Z,417.7
2022-07-29T18:57:06.834Z,409.6
2022-07-29T18:58:50.230Z,401.2
2022-07-29T19:00:33.624Z,396.5
2022-07-29T19:04:00.117Z,402.8
2022-07-29T19:05:43.501Z,408.2
2022-07-29T19:07:26.898Z,410.3
2022-07-29T19:09:10.306Z,408.5
2022-07-29T19:10:53.676Z,405.8
2022-07-29T19:12:37.081Z,403.6
2022-07-29T19:14:20.474Z,407.5
2022-07-29T19:16:03.879Z,410.1
2022-07-29T19:19:30.345Z,412.1
2022-07-29T19:21:13.737Z,412.7
2022-07-29T19:22:57.148Z,412.8
2022-07-29T19:24:40.568Z,411.2
2022-07-29T19:26:23.946Z,407.2
2022-07-29T19:28:07.347Z,406.3
2022-07-29T19:29:50.734Z,403.3
2022-07-29T19:31:34.120Z,401.5
2022-07-29T19:36:43.366Z,400.6
2022-07-29T19:38:26.763Z,397.1
2022-07-29T19:40:10.163Z,399
2022-07-29T19:41:53.547Z,399.8
2022-07-29T19:43:36.966Z,400.6
2022-07-29T19:45:20.360Z,403.6
2022-07-29T19:47:03.742Z,404.2
2022-07-29T19:48:47.151Z,404.4
2022-07-29T19:52:13.625Z,407.7
2022-07-29T19:53:57.018Z,407.1
2022-07-29T19:55:40.402Z,407.4
2022-07-29T19:57:23.807Z,410
2022-07-29T19:59:07.206Z,412.3
2022-07-29T20:00:50.617Z,412.7
2022-07-29T20:02:33.999Z,414
2022-07-29T20:04:17.430Z,416
2022-07-29T20:09:26.649Z,419.8
2022-07-29T20:11:10.045Z,417.7
2022-07-29T20:12:53.499Z,412.7
2022-07-29T20:14:36.841Z,408.3
2022-07-29T20:16:20.224Z,403.2
2022-07-29T20:18:03.627Z,399.7
2022-07-29T20:19:47.015Z,396.7
2022-07-29T20:21:30.413Z,394.8
2022-07-29T20:26:39.681Z,385.9
2022-07-29T20:28:23.060Z,384.6
2022-07-29T20:30:06.458Z,381.4
2022-07-29T20:31:49.877Z,380.3
2022-07-29T20:33:33.248Z,379.6
2022-07-29T20:35:16.647Z,378
2022-07-29T20:37:00.050Z,375.8
2022-07-29T20:38:43.471Z,373.2
2022-07-29T20:42:09.908Z,372
2022-07-29T20:43:53.327Z,370.1
2022-07-29T20:45:36.707Z,369.1
2022-07-29T20:47:20.110Z,370.4
2022-07-29T20:49:03.526Z,370.8
2022-07-29T20:50:46.916Z,368.6
2022-07-29T20:52:30.303Z,368
2022-07-29T20:54:13.701Z,365.1
2022-07-29T20:57:40.181Z,365
2022-07-29T20:59:23.574Z,363.4
2022-07-29T21:01:06.972Z,365.4
2022-07-29T21:02:50.358Z,363.3
2022-07-29T21:04:33.759Z,361.7
2022-07-29T21:06:17.151Z,360.7
2022-07-29T21:08:00.548Z,360
2022-07-29T21:09:43.950Z,355.5
2022-07-29T21:13:10.445Z,356.8
2022-07-29T21:14:53.828Z,355.1
2022-07-29T21:16:37.209Z,357.3
2022-07-29T21:18:20.614Z,359.8
2022-07-29T21:20:04.017Z,362.3
2022-07-29T21:21:47.402Z,364.6
2022-07-29T21:23:30.810Z,363.7
2022-07-29T21:25:14.232Z,362.1
2022-07-29T21:28:40.673Z,361.9
2022-07-29T21:30:24.072Z,362.8
2022-07-29T21:32:07.459Z,366.3
2022-07-29T21:33:50.867Z,369.4
2022-07-29T21:35:34.254Z,374.1
2022-07-29T21:37:17.668Z,381.6
2022-07-29T21:39:01.048Z,381.8
2022-07-29T21:40:44.458Z,381.4
2022-07-29T21:45:53.698Z,383.7
2022-07-29T21:47:37.093Z,382.4
2022-07-29T21:49:20.483Z,382
2022-07-29T21:51:03.888Z,379.7
2022-07-29T21:52:47.275Z,379.1
2022-07-29T21:54:30.684Z,380
2022-07-29T21:56:14.085Z,377.2
2022-07-29T21:57:57.473Z,377.4
2022-07-29T22:01:23.951Z,378.5
2022-07-29T22:03:07.345Z,376.2
2022-07-29T22:04:50.743Z,372.7
2022-07-29T22:06:34.124Z,370.8
2022-07-29T22:08:17.544Z,369.6
2022-07-29T22:10:00.927Z,365.6
2022-07-29T22:11:44.312Z,364.7
2022-07-29T22:13:27.716Z,365.1
2022-07-29T22:18:36.960Z,368.2
2022-07-29T22:20:20.364Z,369.2
2022-07-29T22:22:03.750Z,368.2
2022-07-29T22:23:47.142Z,368.7
2022-07-29T22:25:30.542Z,369.1
2022-07-29T22:27:13.934Z,373.1
2022-07-29T22:28:57.339Z,373.3
2022-07-29T22:30:40.749Z,371.7
2022-07-29T22:34:07.253Z,372.1
2022-07-29T22:35:50.608Z,372.5
2022-07-29T22:37:33.990Z,373.1
2022-07-29T22:39:17.394Z,369.8
2022-07-29T22:41:00.795Z,366.1
2022-07-29T22:42:44.198Z,366.4
2022-07-29T22:44:27.586Z,366.2
2022-07-29T22:46:10.983Z,363.2
2022-07-29T22:49:37.451Z,358.1
2022-07-29T22:51:20.851Z,359
2022-07-29T22:53:04.240Z,359.6
2022-07-29T22:54:47.637Z,360.4
2022-07-29T22:56:31.026Z,364.5
2022-07-29T22:58:14.426Z,365.1
2022-07-29T22:59:57.817Z,365.1
2022-07-29T23:01:41.230Z,365.1
2022-07-29T23:06:50.484Z,363.1
2022-07-29T23:08:33.852Z,363.3
2022-07-29T23:10:17.262Z,364.1
2022-07-29T23:12:00.653Z,363.8
2022-07-29T23:13:44.072Z,364.5
2022-07-29T23:15:27.449Z,365.1
2022-07-29T23:17:10.836Z,363.7
2022-07-29T23:18:54.232Z,363.1
2022-07-29T23:20:37.942Z,363.9
2022-07-29T23:22:21.341Z,364.7
2022-07-29T23:24:04.738Z,364.4
2022-07-29T23:25:48.141Z,364.2
2022-07-29T23:27:31.530Z,362.8
2022-07-29T23:29:14.925Z,360
2022-07-29T23:30:58.323Z,359.4
2022-07-29T23:32:41.713Z,361.3
2022-07-29T23:37:50.954Z,362
2022-07-29T23:39:34.351Z,362.6
2022-07-29T23:41:17.753Z,362.7
2022-07-29T23:43:01.144Z,364.7
2022-07-29T23:44:44.554Z,369.4
2022-07-29T23:46:27.945Z,369.5
2022-07-29T23:48:11.326Z,370.2
2022-07-29T23:49:54.738Z,370.6
2022-07-29T23:53:21.194Z,370.3
2022-07-29T23:55:04.617Z,371
2022-07-29T23:56:47.994Z,371.2
2022-07-29T23:58:31.415Z,368.6
